Time;durP1;ratioP1;P1;durP2;ratioP2;P2;SDS_P1;SDS_P2;PMS_P1;PMS_P2;Temp;Humidity;BMP_temperature;BMP_pressure;BME280_temperature;BME280_humidity;BME280_pressure;Samples;Min_cycle;Max_cycle;Signal;HPM_P1;HPM_P2
2022/05/18 00:02:13;;;;;;;6.40;3.92;;;;;;;17.94;66.26;100216.88;5053079;28;20063;-64
2022/05/18 00:05:02;;;;;;;7.97;4.30;;;;;;;17.92;66.07;100217.75;5037674;28;20127;-64
2022/05/18 00:07:52;;;;;;;5.75;4.07;;;;;;;17.89;65.87;100215.19;5052979;28;20052;-64
2022/05/18 00:10:41;;;;;;;5.57;4.05;;;;;;;17.90;66.17;100230.03;5038597;28;20179;-64
2022/05/18 00:13:34;;;;;;;9.15;4.22;;;;;;;17.90;65.95;100230.91;5038614;28;20610;-64
2022/05/18 00:16:24;;;;;;;6.32;4.07;;;;;;;17.90;66.13;100236.13;5038582;28;20048;-64
2022/05/18 00:19:11;;;;;;;7.53;4.60;;;;;;;17.90;65.82;100235.28;5053238;28;20107;-64
2022/05/18 00:21:55;;;;;;;6.65;4.35;;;;;;;17.91;66.19;100237.88;5053049;28;20052;-63
2022/05/18 00:24:47;;;;;;;11.07;4.38;;;;;;;17.91;66.04;100234.38;5037928;28;20132;-63
2022/05/18 00:27:31;;;;;;;11.98;5.50;;;;;;;17.91;65.83;100230.00;5037987;28;20561;-63
2022/05/18 00:30:21;;;;;;;8.93;4.88;;;;;;;17.92;66.08;100231.75;5053181;28;20546;-64
2022/05/18 00:33:15;;;;;;;6.47;4.60;;;;;;;17.93;65.81;100238.72;5037560;28;20182;-64
2022/05/18 00:36:05;;;;;;;8.00;4.15;;;;;;;17.93;65.62;100238.72;5052541;28;20117;-63
2022/05/18 00:38:52;;;;;;;8.50;4.25;;;;;;;17.94;65.90;100237.84;5038507;28;20136;-63
2022/05/18 00:41:42;;;;;;;6.53;3.92;;;;;;;17.94;65.92;100242.22;5037289;28;20060;-63
2022/05/18 00:44:29;;;;;;;5.72;4.20;;;;;;;17.93;65.92;100240.47;5052533;28;20040;-64
2022/05/18 00:47:13;;;;;;;7.10;4.05;;;;;;;17.93;65.67;100238.72;5052807;28;20044;-63
2022/05/18 00:50:06;;;;;;;6.47;4.15;;;;;;;17.90;65.87;100237.91;5053106;28;20103;-62
2022/05/18 00:53:10;;;;;;;8.50;4.40;;;;;;;17.89;65.74;100237.03;5038024;28;20495;-63
2022/05/18 00:56:05;;;;;;;5.55;4.18;;;;;;;17.89;65.78;100238.78;5053203;28;20550;-64
2022/05/18 00:59:03;;;;;;;6.43;3.97;;;;;;;17.89;65.73;100237.03;5052739;28;20088;-63
2022/05/18 01:01:57;;;;;;;7.63;4.35;;;;;;;17.88;65.58;100243.16;5037906;28;20527;-64
2022/05/18 01:04:56;;;;;;;7.55;4.15;;;;;;;17.89;65.74;100233.56;5041202;28;20048;-62
2022/05/18 01:07:47;;;;;;;7.03;4.13;;;;;;;17.87;65.49;100241.41;5041026;28;20055;-64
2022/05/18 01:10:31;;;;;;;6.53;4.32;;;;;;;17.86;65.83;100244.91;5056077;28;20048;-63
2022/05/18 01:13:26;;;;;;;6.05;4.22;;;;;;;17.86;65.34;100244.91;5041151;28;20455;-64
2022/05/18 01:16:19;;;;;;;6.60;4.53;;;;;;;17.85;65.29;100248.41;5041522;28;20084;-63
2022/05/18 01:19:18;;;;;;;8.88;4.38;;;;;;;17.85;65.42;100244.94;5040998;28;20051;-64
2022/05/18 01:22:14;;;;;;;5.30;4.28;;;;;;;17.83;65.43;100244.09;5055645;28;20126;-64
2022/05/18 01:25:20;;;;;;;4.70;3.50;;;;;;;17.82;65.31;100240.63;5040653;28;20052;-64
2022/05/18 01:28:11;;;;;;;8.13;4.15;;;;;;;17.83;65.28;100244.09;5055620;28;20052;-63
2022/05/18 01:30:55;;;;;;;5.07;3.65;;;;;;;17.83;65.27;100239.69;5040812;28;20056;-63
2022/05/18 01:33:47;;;;;;;6.07;4.10;;;;;;;17.83;65.21;100239.69;5040725;28;20051;-63
2022/05/18 01:36:37;;;;;;;5.28;3.58;;;;;;;17.83;65.11;100237.06;5040877;28;20052;-64
2022/05/18 01:39:32;;;;;;;5.03;3.35;;;;;;;17.84;65.24;100235.34;5055669;28;20105;-63
2022/05/18 01:42:49;;;;;;;4.45;4.05;;;;;;;17.86;65.50;100237.06;5040594;28;20072;-63
2022/05/18 01:45:39;;;;;;;6.10;3.70;;;;;;;17.85;65.11;100240.56;5055304;28;20136;-63
2022/05/18 01:48:32;;;;;;;6.80;4.47;;;;;;;17.86;65.36;100242.28;5040720;28;20412;-67
2022/05/18 01:51:45;;;;;;;8.13;4.28;;;;;;;17.84;65.33;100236.19;5040243;28;20055;-63
2022/05/18 01:54:34;;;;;;;9.25;4.07;;;;;;;17.86;65.47;100239.66;5055413;28;20048;-63
2022/05/18 01:57:19;;;;;;;5.30;3.60;;;;;;;17.87;65.32;100251.91;5040175;28;20088;-64
2022/05/18 02:00:11;;;;;;;6.03;4.05;;;;;;;17.86;65.45;100250.16;5055504;28;20063;-63
2022/05/18 02:03:00;;;;;;;7.20;3.72;;;;;;;17.85;65.40;100251.03;5055435;28;20202;-64
2022/05/18 02:05:53;;;;;;;6.28;4.20;;;;;;;17.84;65.23;100257.16;5054868;28;20419;-63
2022/05/18 02:08:40;;;;;;;6.68;3.60;;;;;;;17.83;65.42;100246.72;5055191;28;20109;-63
2022/05/18 02:11:25;;;;;;;6.10;4.05;;;;;;;17.83;65.38;100244.94;5055135;28;20199;-63
2022/05/18 02:14:18;;;;;;;6.82;4.05;;;;;;;17.83;65.20;100244.94;5039515;28;20055;-64
2022/05/18 02:17:11;;;;;;;5.60;3.60;;;;;;;17.84;65.45;100245.81;5039463;28;20043;-63
2022/05/18 02:20:04;;;;;;;6.28;4.28;;;;;;;17.84;65.44;100253.69;5040103;28;20085;-63
2022/05/18 02:22:56;;;;;;;6.15;3.65;;;;;;;17.84;65.21;100245.81;5054703;28;20047;-64
2022/05/18 02:25:42;;;;;;;4.43;3.97;;;;;;;17.85;65.50;100247.56;5039774;28;20056;-64
2022/05/18 02:28:35;;;;;;;5.25;3.67;;;;;;;17.84;65.40;100246.69;5040019;28;20580;-64
2022/05/18 02:31:24;;;;;;;4.82;3.60;;;;;;;17.85;65.37;100242.31;5039469;28;20094;-63
2022/05/18 02:34:08;;;;;;;7.30;4.10;;;;;;;17.82;65.30;100240.63;5039781;28;20051;-65
2022/05/18 02:37:01;;;;;;;4.15;3.50;;;;;;;17.83;65.29;100241.47;5054959;28;20048;-62
2022/05/18 02:39:53;;;;;;;5.32;3.65;;;;;;;17.84;65.14;100237.97;5039622;28;20052;-64
2022/05/18 02:42:45;;;;;;;5.38;3.70;;;;;;;17.81;65.24;100237.09;5039563;28;20093;-63
2022/05/18 02:45:34;;;;;;;4.72;3.47;;;;;;;17.81;65.51;100231.88;5039322;28;20075;-64
2022/05/18 02:48:24;;;;;;;4.63;3.70;;;;;;;17.81;65.36;100226.63;5039542;28;20455;-64
2022/05/18 02:51:16;;;;;;;4.70;3.63;;;;;;;17.83;65.30;100236.22;5054217;28;20098;-64
2022/05/18 02:54:02;;;;;;;6.13;3.90;;;;;;;17.81;65.16;100229.25;5053907;28;20423;-63
2022/05/18 02:56:52;;;;;;;5.40;4.00;;;;;;;17.82;65.23;100227.50;5054042;28;20047;-63
2022/05/18 02:59:44;;;;;;;15.23;4.65;;;;;;;17.81;65.24;100225.78;5039274;28;20048;-63
2022/05/18 03:02:32;;;;;;;8.65;3.55;;;;;;;17.83;65.15;100233.59;5038633;28;20064;-65
2022/05/18 03:05:25;;;;;;;6.85;3.70;;;;;;;17.81;65.07;100226.63;5053779;28;20566;-63
2022/05/18 03:08:18;;;;;;;5.95;4.10;;;;;;;17.81;65.24;100238.88;5039228;28;20091;-63
2022/05/18 03:11:07;;;;;;;4.68;3.78;;;;;;;17.81;65.23;100244.13;5038701;28;20048;-63
2022/05/18 03:13:54;;;;;;;5.53;4.10;;;;;;;17.79;65.06;100244.13;5037977;28;20059;-63
2022/05/18 03:16:43;;;;;;;9.18;4.13;;;;;;;17.78;64.94;100246.75;5039162;28;20052;-63
2022/05/18 03:19:33;;;;;;;5.00;3.55;;;;;;;17.78;65.07;100241.53;5039313;28;20048;-64
2022/05/18 03:25:31;;;;;;;7.18;4.22;;;;;;;17.74;65.08;100250.28;5053102;28;20079;-65
2022/05/18 03:28:22;;;;;;;6.72;4.03;;;;;;;17.73;64.87;100252.06;5053933;28;20099;-63
2022/05/18 03:31:12;;;;;;;5.95;3.50;;;;;;;17.72;64.95;100255.56;5038665;28;20518;-64
2022/05/18 03:34:08;;;;;;;5.38;3.78;;;;;;;17.73;65.01;100253.78;5053185;28;20052;-63
2022/05/18 03:36:52;;;;;;;5.47;3.67;;;;;;;17.72;65.11;100259.91;5053831;28;20047;-63
2022/05/18 03:39:42;;;;;;;5.10;3.55;;;;;;;17.69;65.04;100259.94;5038492;28;20487;-65
2022/05/18 03:42:32;;;;;;;3.90;3.40;;;;;;;17.69;64.88;100259.94;5038563;28;20048;-64
2022/05/18 03:45:25;;;;;;;4.60;3.70;;;;;;;17.69;64.90;100265.19;5038288;28;20488;-63
2022/05/18 03:48:17;;;;;;;6.68;4.07;;;;;;;17.66;64.55;100268.72;5038489;28;20510;-63
2022/05/18 03:51:12;;;;;;;6.85;3.70;;;;;;;17.65;64.82;100277.47;5038678;28;20052;-64
2022/05/18 03:53:59;;;;;;;7.32;3.90;;;;;;;17.66;64.95;100271.34;5038542;28;20051;-64
2022/05/18 03:56:49;;;;;;;4.38;3.97;;;;;;;17.64;64.85;100274.00;5038639;28;20044;-65
2022/05/18 03:59:38;;;;;;;4.82;3.80;;;;;;;17.65;64.84;100274.84;5038413;28;20110;-63
2022/05/18 04:02:31;;;;;;;4.88;3.70;;;;;;;17.67;64.80;100278.31;5053112;28;20076;-63
2022/05/18 04:05:28;;;;;;;6.97;3.83;;;;;;;17.70;64.91;100286.16;5038162;28;20060;-64
2022/05/18 04:08:17;;;;;;;5.47;4.22;;;;;;;17.72;64.85;100310.59;5053098;28;20179;-63
2022/05/18 04:11:09;;;;;;;5.53;3.92;;;;;;;17.72;64.98;100320.22;5038408;28;20047;-63
2022/05/18 04:14:02;;;;;;;5.45;3.90;;;;;;;17.73;64.86;100330.69;5038425;28;20146;-63
2022/05/18 04:16:49;;;;;;;10.13;3.88;;;;;;;17.73;64.94;100320.22;5038289;28;20125;-63
2022/05/18 04:19:33;;;;;;;6.60;4.07;;;;;;;17.74;64.74;100323.69;5038035;28;20522;-63
2022/05/18 04:22:27;;;;;;;8.32;4.28;;;;;;;17.73;64.80;100325.44;5053254;28;20471;-63
2022/05/18 04:25:21;;;;;;;5.75;4.00;;;;;;;17.73;64.90;100333.31;5038263;28;20075;-64
2022/05/18 04:28:09;;;;;;;6.15;4.43;;;;;;;17.74;64.83;100340.28;5053510;28;20478;-63
2022/05/18 04:30:58;;;;;;;6.43;3.60;;;;;;;17.76;64.96;100340.28;5053085;28;20048;-64
2022/05/18 04:33:47;;;;;;;7.95;4.57;;;;;;;17.77;64.93;100339.38;5038215;28;20056;-63
2022/05/18 04:36:37;;;;;;;5.13;4.22;;;;;;;17.77;65.03;100334.16;5038602;28;20416;-64
2022/05/18 04:39:24;;;;;;;4.75;4.00;;;;;;;17.77;65.13;100342.00;5041749;28;20083;-63
2022/05/18 04:42:11;;;;;;;5.75;3.63;;;;;;;17.76;64.82;100348.13;5041956;28;20051;-63
2022/05/18 04:44:56;;;;;;;6.43;3.85;;;;;;;17.78;65.14;100352.47;5041686;28;20152;-63
2022/05/18 04:47:43;;;;;;;8.48;3.97;;;;;;;17.78;65.07;100349.00;5056858;28;20535;-64
2022/05/18 04:50:35;;;;;;;6.43;3.58;;;;;;;17.78;65.12;100351.63;5041630;28;20079;-64
2022/05/18 04:53:22;;;;;;;8.73;4.93;;;;;;;17.77;65.03;100355.97;5041556;28;20044;-63
2022/05/18 04:56:08;;;;;;;6.90;4.70;;;;;;;17.77;65.03;100355.13;5041865;28;20530;-63
2022/05/18 04:58:56;;;;;;;10.45;4.28;;;;;;;17.77;65.05;100349.88;5041482;28;20143;-64
2022/05/18 05:01:43;;;;;;;8.30;4.10;;;;;;;17.77;65.32;100365.59;5056032;28;20055;-64
2022/05/18 05:04:28;;;;;;;6.30;3.85;;;;;;;17.76;65.31;100353.38;5041121;28;20090;-64
2022/05/18 05:07:20;;;;;;;7.53;3.90;;;;;;;17.76;65.01;100353.38;5041238;28;20093;-63
2022/05/18 05:10:07;;;;;;;5.60;4.20;;;;;;;17.75;65.13;100351.63;5041538;28;20047;-63
2022/05/18 05:12:57;;;;;;;4.72;4.03;;;;;;;17.75;65.15;100352.50;5041327;28;20063;-63
2022/05/18 05:15:47;;;;;;;5.90;4.30;;;;;;;17.75;65.16;100359.50;5041423;28;20103;-63
2022/05/18 05:18:40;;;;;;;4.03;3.45;;;;;;;17.75;65.29;100362.13;5056192;28;20056;-63
2022/05/18 05:21:30;;;;;;;6.07;4.00;;;;;;;17.74;65.15;100369.13;5055969;28;20420;-63
2022/05/18 05:24:16;;;;;;;5.78;3.60;;;;;;;17.76;65.40;100374.34;5040537;28;20535;-63
2022/05/18 05:27:03;;;;;;;4.90;4.22;;;;;;;17.76;65.22;100374.34;5041349;28;20404;-64
2022/05/18 05:29:50;;;;;;;11.77;4.50;;;;;;;17.75;65.36;100375.22;5040764;28;20055;-63
2022/05/18 05:32:35;;;;;;;5.13;4.10;;;;;;;17.75;65.21;100377.84;5056049;28;20039;-65
2022/05/18 05:35:22;;;;;;;8.23;4.22;;;;;;;17.74;65.36;100369.13;5055425;28;20136;-63
2022/05/18 05:38:17;;;;;;;4.63;3.60;;;;;;;17.75;65.37;100380.47;5040865;28;20103;-64
2022/05/18 05:41:01;;;;;;;5.10;3.63;;;;;;;17.75;65.27;100381.31;5040986;28;20099;-63
2022/05/18 05:43:47;;;;;;;6.80;4.00;;;;;;;17.74;65.46;100377.00;5055458;28;20151;-63
2022/05/18 05:46:32;;;;;;;6.05;3.92;;;;;;;17.76;65.34;100377.81;5040402;28;20527;-63
2022/05/18 05:49:21;;;;;;;6.75;4.15;;;;;;;17.76;65.38;100380.44;5039623;28;20071;-64
2022/05/18 05:52:07;;;;;;;5.18;3.83;;;;;;;17.76;65.41;100369.09;5040545;28;20416;-63
2022/05/18 05:54:51;;;;;;;3.92;3.50;;;;;;;17.76;65.29;100363.88;5055708;28;20075;-63
2022/05/18 05:57:38;;;;;;;5.03;3.53;;;;;;;17.77;65.41;100370.84;5055465;28;20419;-63
2022/05/18 06:00:25;;;;;;;7.57;3.83;;;;;;;17.77;65.18;100368.22;5040324;28;20118;-64
2022/05/18 06:03:17;;;;;;;6.55;3.55;;;;;;;17.77;65.58;100371.69;5040067;28;20056;-63
2022/05/18 06:06:02;;;;;;;6.50;3.80;;;;;;;17.77;65.26;100366.47;5055234;28;20516;-64
2022/05/18 06:08:51;;;;;;;6.70;3.92;;;;;;;17.77;65.35;100370.84;5039889;28;20047;-63
2022/05/18 06:11:39;;;;;;;9.80;3.50;;;;;;;17.78;65.54;100369.97;5055307;28;20160;-63
2022/05/18 06:14:26;;;;;;;9.10;3.88;;;;;;;17.79;65.49;100379.56;5055046;28;20116;-63
2022/05/18 06:17:10;;;;;;;4.30;3.58;;;;;;;17.79;65.44;100375.19;5039818;28;20148;-63
2022/05/18 06:19:55;;;;;;;4.40;3.95;;;;;;;17.79;65.66;100372.56;5055132;28;20048;-63
2022/05/18 06:22:41;;;;;;;8.02;3.85;;;;;;;17.79;65.59;100366.47;5054544;28;20079;-63
2022/05/18 06:25:28;;;;;;;5.25;3.80;;;;;;;17.79;65.65;100376.94;5054333;28;20106;-64
2022/05/18 06:28:17;;;;;;;5.22;3.70;;;;;;;17.79;65.59;100371.72;5054836;28;20419;-64
2022/05/18 06:31:03;;;;;;;4.57;3.47;;;;;;;17.78;65.41;100377.81;5039972;28;20039;-63
2022/05/18 06:33:53;;;;;;;6.50;4.28;;;;;;;17.78;65.54;100380.44;5055022;28;20106;-63
2022/05/18 06:36:43;;;;;;;7.03;3.63;;;;;;;17.78;65.36;100383.06;5039754;28;20043;-64
2022/05/18 06:39:28;;;;;;;6.55;3.35;;;;;;;17.78;65.40;100380.44;5054515;28;20040;-63
2022/05/18 06:42:11;;;;;;;5.68;3.38;;;;;;;17.77;65.61;100383.94;5054590;28;20102;-63
2022/05/18 06:45:04;;;;;;;11.13;3.83;;;;;;;17.76;65.54;100390.94;5039439;28;20064;-63
2022/05/18 06:47:48;;;;;;;4.45;3.53;;;;;;;17.77;65.86;100395.28;5039436;28;20124;-64
2022/05/18 06:50:32;;;;;;;6.63;4.13;;;;;;;17.80;65.40;100399.66;5053979;28;20489;-63
2022/05/18 06:53:16;;;;;;;8.50;4.00;;;;;;;17.80;65.44;100400.50;5039619;28;20052;-64
2022/05/18 06:56:03;;;;;;;6.97;3.88;;;;;;;17.80;65.54;100404.91;5054239;28;20048;-64
2022/05/18 06:58:57;;;;;;;8.60;3.58;;;;;;;17.80;65.30;100412.78;5038935;28;20412;-63
2022/05/18 07:01:43;;;;;;;6.33;3.80;;;;;;;17.79;65.50;100417.13;5038793;28;20087;-63
2022/05/18 07:04:38;;;;;;;6.38;3.70;;;;;;;17.80;65.46;100413.63;5054025;28;20095;-64
2022/05/18 07:07:22;;;;;;;5.38;3.25;;;;;;;17.81;65.40;100420.59;5054255;28;20079;-63
2022/05/18 07:10:07;;;;;;;5.93;3.30;;;;;;;17.80;65.54;100412.78;5054200;28;20139;-63
2022/05/18 07:12:50;;;;;;;7.03;3.80;;;;;;;17.82;65.55;100416.25;5038829;28;20132;-63
2022/05/18 07:15:49;;;;;;;5.00;3.55;;;;;;;17.82;65.38;100418.88;5054310;28;20129;-64
2022/05/18 07:18:41;;;;;;;6.00;4.20;;;;;;;17.81;65.63;100417.13;5038665;28;20083;-64
2022/05/18 07:21:32;;;;;;;5.88;3.60;;;;;;;17.83;65.42;100422.34;5053918;28;20523;-63
2022/05/18 07:24:23;;;;;;;6.80;4.07;;;;;;;17.82;65.57;100421.50;5038607;28;20091;-63
2022/05/18 07:27:09;;;;;;;4.80;3.08;;;;;;;17.83;65.69;100423.19;5038781;28;20055;-63
2022/05/18 07:29:58;;;;;;;4.45;3.40;;;;;;;17.83;65.53;100428.44;5053616;28;20047;-63
2022/05/18 07:32:48;;;;;;;7.38;3.40;;;;;;;17.83;65.48;100424.97;5053716;28;20044;-62
2022/05/18 07:35:32;;;;;;;6.82;3.55;;;;;;;17.83;65.41;100425.81;5038380;28;20052;-64
2022/05/18 07:38:23;;;;;;;5.22;3.60;;;;;;;17.85;65.32;100431.06;5053666;28;20043;-63
2022/05/18 07:41:10;;;;;;;6.00;3.70;;;;;;;17.84;65.57;100427.56;5038759;28;20056;-63
2022/05/18 07:43:57;;;;;;;8.32;3.60;;;;;;;17.85;65.54;100436.31;5038699;28;20090;-63
2022/05/18 07:46:44;;;;;;;6.05;3.33;;;;;;;17.86;65.52;100438.91;5038312;28;20048;-63
2022/05/18 07:49:37;;;;;;;7.07;3.78;;;;;;;17.86;65.62;100441.53;5053804;28;20051;-64
2022/05/18 07:52:27;;;;;;;6.53;3.33;;;;;;;17.87;65.55;100445.91;5053369;28;20056;-63
2022/05/18 07:55:16;;;;;;;6.90;3.75;;;;;;;17.89;65.36;100451.16;5038378;28;20104;-64
2022/05/18 07:58:15;;;;;;;7.35;3.58;;;;;;;17.90;65.40;100455.50;5053159;28;20127;-64
2022/05/18 08:01:01;;;;;;;8.75;3.72;;;;;;;17.89;65.59;100456.41;5037933;28;20048;-64
2022/05/18 08:03:51;;;;;;;6.93;3.92;;;;;;;17.90;65.51;100448.50;5053506;28;20067;-64
2022/05/18 08:06:44;;;;;;;5.78;4.22;;;;;;;17.92;65.47;100451.09;5038124;28;20523;-63
2022/05/18 08:15:05;;;;;;;8.13;3.92;;;;;;;17.91;65.75;100457.22;5052959;28;20070;-63
2022/05/18 08:15:41;;;;;;;5.22;3.72;;;;;;;17.94;65.63;100446.72;5057002;28;20106;-64
2022/05/18 08:18:29;;;;;;;4.80;3.50;;;;;;;17.93;65.26;100448.50;5042752;28;20492;-64
2022/05/18 08:21:19;;;;;;;6.35;3.80;;;;;;;17.95;65.49;100443.22;5042148;28;20163;-63
2022/05/18 08:24:05;;;;;;;9.82;3.67;;;;;;;17.94;65.52;100450.22;5042222;28;20095;-64
2022/05/18 08:26:49;;;;;;;4.47;3.45;;;;;;;17.96;65.65;100444.97;5057383;28;20507;-63
2022/05/18 08:29:38;;;;;;;4.57;3.50;;;;;;;17.98;65.54;100450.25;5042336;28;20052;-64
2022/05/18 08:32:28;;;;;;;5.72;3.70;;;;;;;18.00;65.51;100457.19;5057080;28;20110;-64
2022/05/18 08:35:18;;;;;;;6.72;3.72;;;;;;;18.02;65.52;100459.81;5057493;28;20064;-64
2022/05/18 08:38:04;;;;;;;5.63;3.63;;;;;;;18.02;65.56;100450.19;5056479;28;20052;-64
2022/05/18 08:40:54;;;;;;;5.22;3.40;;;;;;;18.04;65.40;100452.78;5057103;28;20135;-63
2022/05/18 08:43:48;;;;;;;7.22;3.53;;;;;;;18.04;65.60;100455.41;5041945;28;20087;-64
2022/05/18 08:46:54;;;;;;;5.07;3.55;;;;;;;18.07;65.51;100455.41;5042075;28;20507;-64
2022/05/18 08:49:58;;;;;;;6.50;3.20;;;;;;;18.08;65.56;100460.63;5041931;28;20048;-64
2022/05/18 08:52:54;;;;;;;6.07;4.00;;;;;;;18.10;65.33;100460.63;5056402;28;20079;-64
2022/05/18 08:56:16;;;;;;;4.55;3.45;;;;;;;18.10;65.38;100458.00;5056904;28;20465;-64
2022/05/18 08:59:08;;;;;;;4.07;3.47;;;;;;;18.12;65.31;100461.50;5041275;28;20542;-63
2022/05/18 09:01:59;;;;;;;5.65;4.05;;;;;;;18.15;65.32;100455.34;5056120;28;20060;-64
2022/05/18 09:04:55;;;;;;;5.75;3.58;;;;;;;18.16;65.61;100460.56;5041178;28;20048;-63
2022/05/18 09:07:46;;;;;;;8.25;3.80;;;;;;;18.20;65.47;100458.78;5056393;28;20052;-64
2022/05/18 09:10:37;;;;;;;6.10;3.72;;;;;;;18.20;65.33;100462.28;5041074;28;20048;-64
2022/05/18 09:13:24;;;;;;;5.88;3.72;;;;;;;18.23;65.37;100450.88;5041111;28;20075;-63
2022/05/18 09:16:27;;;;;;;5.75;3.67;;;;;;;18.25;65.17;100456.97;5056058;28;20535;-64
2022/05/18 09:19:34;;;;;;;9.05;4.32;;;;;;;18.27;65.46;100460.47;5055993;28;20055;-63
2022/05/18 09:22:27;;;;;;;5.28;3.75;;;;;;;18.29;65.18;100450.84;5055909;28;20111;-64
2022/05/18 09:25:36;;;;;;;5.78;3.85;;;;;;;18.31;65.09;100464.81;5040636;28;20048;-65
2022/05/18 09:28:35;;;;;;;6.93;3.97;;;;;;;18.33;65.29;100460.41;5055693;28;20554;-64
2022/05/18 09:31:31;;;;;;;7.57;4.13;;;;;;;18.35;65.26;100463.00;5041180;28;20098;-64
2022/05/18 09:34:19;;;;;;;7.05;4.25;;;;;;;18.36;65.19;100452.53;5055906;28;20045;-64
2022/05/18 09:37:18;;;;;;;7.78;3.72;;;;;;;18.37;65.31;100454.22;5040871;28;20081;-63
2022/05/18 09:40:39;;;;;;;4.85;3.88;;;;;;;18.40;65.27;100458.59;5040981;28;20055;-64
2022/05/18 09:43:46;;;;;;;8.18;4.25;;;;;;;18.41;65.23;100457.72;5030221;28;20048;-64
2022/05/18 09:46:30;;;;;;;4.75;4.10;;;;;;;18.44;65.16;100456.81;5040952;28;20055;-64
2022/05/18 09:49:24;;;;;;;6.55;4.28;;;;;;;18.46;65.13;100455.03;5055484;28;20545;-65
2022/05/18 09:52:20;;;;;;;5.40;4.18;;;;;;;18.47;65.28;100447.13;5055448;28;20511;-63
2022/05/18 09:55:10;;;;;;;6.38;4.20;;;;;;;18.49;65.14;100448.00;5040803;28;20091;-64
2022/05/18 09:58:09;;;;;;;9.00;4.88;;;;;;;18.50;65.17;100448.88;5055773;28;20561;-64
2022/05/18 10:07:32;;;;;;;5.95;4.07;;;;;;;18.55;65.09;100447.94;5054880;28;20052;-64
2022/05/18 10:10:25;;;;;;;7.28;4.45;;;;;;;18.58;65.13;100439.16;5040090;28;20087;-64
2022/05/18 10:13:19;;;;;;;5.75;3.95;;;;;;;18.59;64.89;100433.03;5039775;28;20103;-64
2022/05/18 10:16:14;;;;;;;7.25;4.18;;;;;;;18.61;65.21;100446.16;5055048;28;20130;-64
2022/05/18 10:19:06;;;;;;;6.72;4.13;;;;;;;18.63;64.99;100433.84;5054681;28;20048;-64
2022/05/18 10:22:01;;;;;;;6.72;4.47;;;;;;;18.63;64.94;100429.50;5040160;28;20101;-64
2022/05/18 10:24:47;;;;;;;;;;;;;;;18.64;65.06;100430.34;5040196;28;20048;-64
2022/05/18 10:27:41;;;;;;;9.65;4.25;;;;;;;18.64;64.95;100427.72;5053793;28;20294;-64
2022/05/18 10:30:34;;;;;;;5.53;4.22;;;;;;;18.66;65.11;100429.47;5054949;28;20051;-64
2022/05/18 10:33:18;;;;;;;5.15;4.00;;;;;;;18.67;65.10;100427.69;5040215;28;20513;-63
2022/05/18 10:36:10;;;;;;;9.32;4.60;;;;;;;18.70;64.96;100422.41;5054123;28;20052;-64
2022/05/18 10:38:57;;;;;;;8.25;4.75;;;;;;;18.71;65.06;100419.75;5039598;28;20459;-64
2022/05/18 10:41:47;;;;;;;10.95;4.93;;;;;;;18.72;65.12;100418.88;5054310;28;20052;-64
2022/05/18 10:44:37;;;;;;;6.55;4.43;;;;;;;18.75;65.17;100412.75;5054071;28;20044;-64
2022/05/18 10:47:35;;;;;;;5.22;4.32;;;;;;;18.78;64.89;100409.19;5039772;28;20404;-64
2022/05/18 10:50:25;;;;;;;4.78;4.20;;;;;;;18.80;64.95;100399.56;5054719;28;20148;-64
2022/05/18 10:53:15;;;;;;;8.65;4.30;;;;;;;18.82;64.85;100401.25;5039623;28;20523;-63
2022/05/18 10:56:09;;;;;;;7.80;4.43;;;;;;;18.81;64.92;100403.91;5039432;28;20075;-63
2022/05/18 10:59:28;;;;;;;9.18;5.18;;;;;;;18.82;65.07;100403.03;5054096;28;20455;-64
2022/05/18 11:02:21;;;;;;;7.63;4.65;;;;;;;18.82;64.85;100403.03;5039258;28;20107;-63
2022/05/18 11:05:46;;;;;;;9.57;4.65;;;;;;;18.81;64.80;100396.91;5053720;28;20118;-64
2022/05/18 11:08:36;;;;;;;6.70;4.63;;;;;;;18.80;65.05;100395.16;5039219;28;20071;-63
2022/05/18 11:11:23;;;;;;;8.23;4.95;;;;;;;18.82;65.15;100400.41;5039379;28;20048;-64
2022/05/18 11:14:31;;;;;;;8.65;5.03;;;;;;;18.82;65.04;100403.03;5039103;28;20071;-64
2022/05/18 11:17:15;;;;;;;6.80;4.80;;;;;;;18.81;65.50;100402.16;5038828;28;20048;-64
2022/05/18 11:20:17;;;;;;;6.70;5.10;;;;;;;18.83;65.01;100400.38;5053925;28;20094;-64
2022/05/18 11:23:39;;;;;;;7.88;4.80;;;;;;;18.85;65.24;100408.22;5053830;28;20090;-64
2022/05/18 11:26:51;;;;;;;10.07;5.10;;;;;;;18.85;65.17;100401.22;5053319;28;20435;-63
2022/05/18 11:30:07;;;;;;;6.03;4.93;;;;;;;18.85;65.34;100398.59;5053560;28;20094;-64
2022/05/18 11:33:04;;;;;;;7.43;5.15;;;;;;;18.86;65.06;100397.72;5039113;28;20519;-64
2022/05/18 11:36:09;;;;;;;8.48;4.90;;;;;;;18.89;65.43;100398.56;5053764;28;20092;-64
2022/05/18 11:39:11;;;;;;;11.20;5.30;;;;;;;18.90;65.21;100395.06;5038347;28;20471;-64
2022/05/18 11:42:23;;;;;;;12.57;5.82;;;;;;;18.90;65.38;100384.56;5038637;28;20122;-63
2022/05/18 11:45:19;;;;;;;9.57;5.07;;;;;;;18.92;65.30;100388.03;5038224;28;20044;-63
2022/05/18 11:48:25;;;;;;;6.50;4.93;;;;;;;18.92;65.26;100388.88;5053163;28;20098;-63
2022/05/18 11:51:45;;;;;;;7.43;5.35;;;;;;;18.93;65.50;100379.22;5053157;28;20079;-64
2022/05/18 11:54:41;;;;;;;11.20;5.97;;;;;;;18.96;65.58;100385.38;5022496;28;20175;-65
2022/05/18 11:57:25;;;;;;;7.88;5.30;;;;;;;18.99;65.45;100389.69;5038308;28;20075;-64
2022/05/18 12:03:32;;;;;;;9.73;5.40;;;;;;;19.03;65.49;100370.41;5052693;28;20100;-64
2022/05/18 12:06:51;;;;;;;8.98;5.28;;;;;;;19.06;65.59;100388.75;5037996;28;20540;-64
2022/05/18 12:09:57;;;;;;;8.65;5.95;;;;;;;19.08;65.52;100376.44;5053540;28;20044;-65
2022/05/18 12:13:00;;;;;;;8.07;5.45;;;;;;;19.11;65.51;100367.66;5037971;28;20052;-64
2022/05/18 12:16:12;;;;;;;7.65;5.30;;;;;;;19.11;65.43;100373.78;5038052;28;20056;-64
2022/05/18 12:19:10;;;;;;;10.75;5.53;;;;;;;19.14;65.67;100375.50;5038050;28;20095;-65
2022/05/18 12:22:01;;;;;;;10.70;6.30;;;;;;;19.13;65.55;100371.16;5038460;28;20506;-64
2022/05/18 12:24:49;;;;;;;6.72;5.65;;;;;;;19.14;65.87;100376.34;5038301;28;20087;-63
2022/05/18 12:27:39;;;;;;;7.68;5.00;;;;;;;19.14;65.55;100376.34;5037987;28;20056;-64
2022/05/18 12:30:33;;;;;;;9.63;6.22;;;;;;;19.17;65.46;100373.69;5053329;28;20071;-64
2022/05/18 12:33:24;;;;;;;9.30;4.70;;;;;;;19.16;65.66;100376.31;5052620;28;20070;-64
2022/05/18 12:36:28;;;;;;;8.88;6.38;;;;;;;19.21;65.69;100374.50;5038315;28;20151;-64
2022/05/18 12:39:19;;;;;;;8.10;5.45;;;;;;;19.20;65.75;100380.66;5037815;28;20047;-64
2022/05/18 12:42:08;;;;;;;6.85;5.00;;;;;;;19.22;65.68;100378.03;5037959;28;20060;-64
2022/05/18 12:45:40;;;;;;;6.25;4.78;;;;;;;19.24;65.71;100376.22;5052704;28;20047;-65
2022/05/18 12:48:34;;;;;;;7.00;4.55;;;;;;;19.22;65.78;100378.88;5052800;28;20052;-64
2022/05/18 12:51:38;;;;;;;9.80;5.60;;;;;;;19.25;65.76;100372.69;5037957;28;20515;-64
2022/05/18 12:54:44;;;;;;;5.43;4.53;;;;;;;19.27;65.65;100378.81;5038186;28;20047;-64
2022/05/18 12:57:40;;;;;;;7.28;4.88;;;;;;;19.28;65.78;100380.53;5053280;28;20099;-64
2022/05/18 13:00:24;;;;;;;5.75;4.35;;;;;;;19.30;65.72;100376.13;5041806;28;20048;-63
2022/05/18 13:03:08;;;;;;;7.28;4.85;;;;;;;19.31;65.91;100377.88;5056869;28;20536;-64
2022/05/18 13:06:01;;;;;;;7.55;4.47;;;;;;;19.32;65.98;100377.00;5056645;28;20598;-64
2022/05/18 13:08:57;;;;;;;6.95;4.55;;;;;;;19.33;65.84;100381.34;5055929;28;20075;-64
2022/05/18 13:11:44;;;;;;;9.70;4.75;;;;;;;19.33;65.98;100376.09;5056090;28;20055;-64
2022/05/18 13:14:34;;;;;;;7.63;3.83;;;;;;;19.36;65.78;100377.81;5040927;28;20459;-64
2022/05/18 13:17:25;;;;;;;10.02;4.53;;;;;;;19.37;65.89;100377.81;5040945;28;20056;-64
2022/05/18 13:20:30;;;;;;;7.30;5.03;;;;;;;19.39;65.94;100377.75;5056405;28;20048;-64
2022/05/18 13:23:31;;;;;;;5.78;4.05;;;;;;;19.38;65.88;100371.66;5055676;28;20087;-63
2022/05/18 13:26:27;;;;;;;5.05;3.90;;;;;;;19.40;66.07;100379.50;5041161;28;20083;-64
2022/05/18 13:29:20;;;;;;;7.35;4.35;;;;;;;19.39;65.85;100367.25;5041021;28;20142;-63
2022/05/18 13:32:11;;;;;;;7.47;4.00;;;;;;;19.41;65.91;100366.31;5041289;28;20190;-64
2022/05/18 13:34:57;;;;;;;8.02;3.65;;;;;;;19.41;66.18;100368.94;5041070;28;20556;-64
2022/05/18 13:37:41;;;;;;;7.30;4.15;;;;;;;19.43;65.64;100364.53;5041146;28;20059;-63